Time;durP1;ratioP1;P1;durP2;ratioP2;P2;SDS_P1;SDS_P2;PMS_P1;PMS_P2;Temp;Humidity;BMP_temperature;BMP_pressure;BME280_temperature;BME280_humidity;BME280_pressure;Samples;Min_cycle;Max_cycle;Signal;HPM_P1;HPM_P2
2021/05/06 00:32:57;;;;;;;3.85;1.30;;;;;;;23.58;42.13;99274.19;4484011;32;33805;-61
2021/05/06 00:35:29;;;;;;;3.28;1.30;;;;;;;23.57;42.10;99278.81;4484354;32;34417;-62
2021/05/06 00:56:49;;;;;;;4.28;1.05;;;;;;;23.55;42.10;99329.97;4477456;32;33724;-62
2021/05/06 01:04:34;;;;;;;4.75;1.40;;;;;;;23.57;42.20;99329.72;4484284;32;33791;-63
2021/05/06 01:07:22;;;;;;;6.37;1.20;;;;;;;23.56;42.22;99328.91;4484093;32;34576;-62
2021/05/06 01:12:18;;;;;;;3.55;1.23;;;;;;;23.57;42.05;99332.44;4470030;32;33768;-62
2021/05/06 01:14:45;;;;;;;5.00;1.30;;;;;;;23.55;42.18;99327.25;4468093;32;33913;-61
2021/05/06 01:17:13;;;;;;;4.78;1.40;;;;;;;23.56;42.23;99325.34;4472076;32;33843;-61
2021/05/06 01:19:41;;;;;;;5.95;1.45;;;;;;;23.55;42.17;99319.09;4475047;32;33352;-61
2021/05/06 01:22:08;;;;;;;3.60;1.30;;;;;;;23.55;42.21;99340.88;4474970;32;33523;-61
2021/05/06 01:24:35;;;;;;;5.80;1.30;;;;;;;23.55;42.18;99329.13;4484005;32;33771;-62
2021/05/06 01:27:08;;;;;;;5.25;1.27;;;;;;;23.55;42.22;99332.69;4471188;32;34803;-62
2021/05/06 01:29:43;;;;;;;5.97;1.70;;;;;;;23.55;42.29;99337.28;4468223;32;33260;-61
2021/05/06 01:32:25;;;;;;;7.62;1.35;;;;;;;23.55;42.28;99338.16;4468294;32;34780;-61
2021/05/06 01:35:05;;;;;;;7.53;2.00;;;;;;;23.55;42.23;99335.41;4467865;32;33516;-62
2021/05/06 01:42:44;;;;;;;6.28;1.52;;;;;;;23.54;42.32;99346.53;4483959;32;33480;-62
2021/05/06 01:48:13;;;;;;;4.40;1.20;;;;;;;23.54;42.15;99346.53;4475644;32;34701;-62
2021/05/06 01:58:52;;;;;;;6.10;1.23;;;;;;;23.53;42.09;99380.28;4468105;32;33747;-62
2021/05/06 02:01:20;;;;;;;5.28;1.62;;;;;;;23.53;42.12;99381.09;4467938;32;33219;-61
2021/05/06 02:03:47;;;;;;;7.78;1.27;;;;;;;23.52;42.29;99393.06;4467723;32;34519;-61
2021/05/06 02:06:15;;;;;;;6.85;1.20;;;;;;;23.53;42.38;99400.16;4467798;32;33823;-61
2021/05/06 02:08:42;;;;;;;4.25;1.00;;;;;;;23.53;42.31;99386.56;4467607;32;33632;-61
2021/05/06 02:11:10;;;;;;;3.78;1.00;;;;;;;23.54;42.34;99392.81;4467588;32;33368;-61
2021/05/06 02:13:38;;;;;;;4.80;1.52;;;;;;;23.53;42.32;99386.56;4467558;32;34415;-61
2021/05/06 02:16:14;;;;;;;4.28;1.30;;;;;;;23.52;42.42;99384.91;4482690;32;33365;-60
2021/05/06 02:18:44;;;;;;;5.22;1.10;;;;;;;23.53;42.39;99380.28;4483361;32;33805;-61
2021/05/06 02:21:16;;;;;;;4.03;1.37;;;;;;;23.53;42.36;99389.28;4483036;32;34043;-61
2021/05/06 02:23:43;;;;;;;3.75;1.40;;;;;;;23.51;42.35;99380.53;4483350;32;34579;-61
2021/05/06 02:26:11;;;;;;;3.08;1.12;;;;;;;23.51;42.33;99375.09;4484959;32;34763;-61
2021/05/06 02:28:38;;;;;;;6.07;1.40;;;;;;;23.52;42.35;99384.91;4485026;32;33764;-62
2021/05/06 02:31:07;;;;;;;3.50;1.45;;;;;;;23.51;42.36;99368.81;4485024;32;34009;-61
2021/05/06 02:33:34;;;;;;;8.75;1.33;;;;;;;23.50;42.38;99376.16;4484980;32;33987;-61
2021/05/06 02:36:01;;;;;;;7.55;1.20;;;;;;;23.51;42.29;99388.69;4484895;32;33843;-61
2021/05/06 02:38:28;;;;;;;2.78;1.10;;;;;;;23.50;42.32;99381.59;4485015;32;33993;-61
2021/05/06 02:40:55;;;;;;;4.60;1.05;;;;;;;23.50;42.32;99365.25;4484947;32;33582;-61
2021/05/06 02:43:22;;;;;;;3.22;1.45;;;;;;;23.49;42.29;99377.19;4484868;32;34705;-61
2021/05/06 02:45:50;;;;;;;5.60;1.40;;;;;;;23.49;42.32;99382.66;4484956;32;33925;-61
2021/05/06 02:48:17;;;;;;;3.78;1.02;;;;;;;23.48;42.31;99378.28;4474582;32;33623;-61
2021/05/06 02:51:04;;;;;;;1.98;1.12;;;;;;;23.49;42.37;99371.75;4469019;32;34203;-61
2021/05/06 02:53:36;;;;;;;3.60;1.33;;;;;;;23.49;42.37;99377.19;4469306;32;33489;-61
2021/05/06 03:03:47;;;;;;;4.22;1.05;;;;;;;23.48;42.31;99386.44;4469086;32;33559;-61
2021/05/06 03:06:21;;;;;;;4.22;1.25;;;;;;;23.48;42.33;99386.44;4469168;32;35246;-61
2021/05/06 03:08:54;;;;;;;5.15;1.12;;;;;;;23.49;42.31;99398.16;4469119;32;33873;-61
2021/05/06 03:24:54;;;;;;;10.20;1.20;;;;;;;23.46;42.38;99434.88;4469094;32;33783;-61
2021/05/06 03:27:27;;;;;;;2.28;0.90;;;;;;;23.46;42.33;99447.66;4469053;32;33867;-61
2021/05/06 03:30:14;;;;;;;4.37;1.23;;;;;;;23.46;42.35;99456.66;4468866;32;33833;-61
2021/05/06 03:35:38;;;;;;;3.67;1.10;;;;;;;23.47;42.35;99476.53;4474062;32;33712;-63
2021/05/06 03:44:31;;;;;;;3.87;1.20;;;;;;;23.46;42.44;99499.41;4484636;32;33494;-62
2021/05/06 03:49:56;;;;;;;;;;;;;;;23.45;42.42;99501.25;4484937;32;34476;-63
2021/05/06 04:25:46;;;;;;;3.47;1.00;;;;;;;23.40;42.50;99526.47;4484332;32;34068;-61
2021/05/06 04:31:00;;;;;;;4.53;1.75;;;;;;;23.41;42.51;99538.22;4484164;32;33757;-61
2021/05/06 04:36:19;;;;;;;4.87;1.05;;;;;;;23.40;42.52;99547.44;4484258;32;34424;-61
2021/05/06 04:38:46;;;;;;;3.60;1.17;;;;;;;23.42;42.50;99550.75;4484258;32;33185;-61
2021/05/06 04:50:17;;;;;;;2.92;0.90;;;;;;;23.41;42.50;99547.22;4483921;32;33864;-61
2021/05/06 05:03:53;;;;;;;3.30;0.90;;;;;;;23.40;42.55;99542.81;4468646;32;33854;-61
2021/05/06 05:06:23;;;;;;;4.53;1.30;;;;;;;23.40;42.54;99544.69;4468196;32;34160;-61
2021/05/06 05:25:39;;;;;;;5.05;1.10;;;;;;;23.40;42.48;99550.97;4482203;32;33914;-62
2021/05/06 05:28:07;;;;;;;5.07;0.80;;;;;;;23.40;42.46;99555.59;4481905;32;33831;-60
2021/05/06 05:30:35;;;;;;;3.50;1.30;;;;;;;23.40;42.58;99564.59;4476819;32;33793;-61
2021/05/06 05:33:09;;;;;;;2.12;0.88;;;;;;;23.41;42.53;99568.16;4472940;32;89116;-61
2021/05/06 05:35:42;;;;;;;3.22;1.00;;;;;;;23.40;42.47;99575.47;4473370;32;33481;-61
2021/05/06 05:56:51;;;;;;;5.43;1.33;;;;;;;23.41;42.71;99570.88;4469334;32;33747;-61
2021/05/06 05:59:18;;;;;;;7.80;1.00;;;;;;;23.41;42.65;99573.63;4481641;32;33909;-62
2021/05/06 06:01:50;;;;;;;5.93;1.10;;;;;;;23.40;42.58;99583.66;4478629;32;33646;-61
2021/05/06 06:04:17;;;;;;;3.70;1.42;;;;;;;23.41;42.50;99584.50;4467720;32;33696;-61
2021/05/06 06:06:45;;;;;;;14.43;2.67;;;;;;;23.41;42.40;99587.22;4477739;32;34547;-61
2021/05/06 06:09:12;;;;;;;8.85;1.75;;;;;;;23.47;38.17;99585.47;4474810;32;33822;-61
2021/05/06 06:11:39;;;;;;;8.70;1.60;;;;;;;23.39;38.11;99586.62;4467723;32;34149;-60
2021/05/06 06:14:08;;;;;;;9.55;1.60;;;;;;;23.34;38.92;99581.84;4467504;32;34366;-61
2021/05/06 06:16:37;;;;;;;9.75;1.70;;;;;;;23.32;39.44;99586.72;4467763;32;34925;-61
2021/05/06 06:19:06;;;;;;;13.05;1.48;;;;;;;23.29;39.56;99584.44;4467220;32;35066;-63
2021/05/06 06:24:05;;;;;;;8.50;1.40;;;;;;;23.29;39.98;99589.87;4479859;32;33343;-61
2021/05/06 06:26:32;;;;;;;6.05;1.30;;;;;;;23.28;39.86;99585.50;4482945;32;33964;-60
2021/05/06 06:29:07;;;;;;;12.98;2.15;;;;;;;23.28;39.93;99590.97;4472974;32;34683;-62
2021/05/06 06:31:40;;;;;;;8.82;1.37;;;;;;;23.30;40.06;99585.28;4467014;32;33844;-61
2021/05/06 06:34:08;;;;;;;7.32;1.45;;;;;;;23.29;40.19;99584.44;4479149;32;33251;-60
2021/05/06 06:36:35;;;;;;;6.78;1.70;;;;;;;23.32;40.25;99580.44;4482156;32;34540;-61
2021/05/06 06:39:03;;;;;;;8.25;1.67;;;;;;;23.32;40.31;99580.44;4482592;32;34648;-62
2021/05/06 06:41:30;;;;;;;8.55;1.45;;;;;;;23.32;40.36;99585.88;4474306;32;33864;-62
2021/05/06 06:44:01;;;;;;;6.72;1.73;;;;;;;23.32;40.53;99583.16;4469541;32;33027;-62
2021/05/06 06:46:28;;;;;;;7.53;1.70;;;;;;;23.33;40.46;99582.09;4476069;32;33754;-61
2021/05/06 06:48:57;;;;;;;6.40;1.75;;;;;;;23.32;40.44;99575.00;4482024;32;33598;-61
2021/05/06 06:51:25;;;;;;;8.13;1.67;;;;;;;23.33;40.46;99568.47;4482156;32;33865;-61
2021/05/06 06:53:52;;;;;;;7.18;1.35;;;;;;;23.36;40.46;99573.44;4476073;32;33443;-62
2021/05/06 06:56:19;;;;;;;6.18;1.60;;;;;;;23.35;40.52;99575.34;4481455;32;33917;-60
2021/05/06 06:58:51;;;;;;;7.00;1.30;;;;;;;23.35;40.57;99580.78;4482466;32;33824;-61
2021/05/06 07:01:18;;;;;;;7.85;1.35;;;;;;;23.37;40.60;99580.59;4482200;32;34017;-62
2021/05/06 07:03:45;;;;;;;8.50;1.25;;;;;;;23.37;40.68;99573.25;4481835;32;33276;-61
2021/05/06 07:06:12;;;;;;;10.85;1.80;;;;;;;23.38;40.77;99574.06;4482380;32;33438;-61
2021/05/06 07:08:42;;;;;;;9.20;1.70;;;;;;;23.39;40.76;99578.44;4482501;32;33540;-61
2021/05/06 07:11:09;;;;;;;5.93;1.35;;;;;;;23.39;40.86;99583.88;4481985;32;33843;-62
2021/05/06 07:13:36;;;;;;;8.75;1.37;;;;;;;23.41;40.91;99576.34;4483648;32;34448;-61
2021/05/06 07:16:05;;;;;;;6.70;1.35;;;;;;;23.40;40.95;99585.53;4484105;32;33618;-61
2021/05/06 07:18:32;;;;;;;9.43;1.42;;;;;;;23.40;40.97;99574.66;4472884;32;34663;-61
2021/05/06 07:21:04;;;;;;;4.90;1.52;;;;;;;23.42;40.99;99580.72;4478519;32;34207;-61
2021/05/06 07:23:31;;;;;;;7.22;1.27;;;;;;;23.44;41.02;99581.28;4484149;32;33243;-61
2021/05/06 07:26:02;;;;;;;6.43;1.30;;;;;;;23.41;41.10;99579.06;4473537;32;34735;-61
2021/05/06 07:28:34;;;;;;;6.25;1.67;;;;;;;23.41;41.19;99595.41;4481168;32;34887;-61
2021/05/06 07:31:05;;;;;;;6.28;1.37;;;;;;;23.45;41.13;99596.56;4483494;32;33744;-61
2021/05/06 07:33:36;;;;;;;6.62;1.50;;;;;;;23.45;41.17;99593.84;4476338;32;34276;-61
2021/05/06 07:36:12;;;;;;;7.57;1.60;;;;;;;23.44;41.24;99592.19;4476926;32;33918;-61
2021/05/06 07:38:43;;;;;;;6.70;1.27;;;;;;;23.43;41.33;99591.34;4473475;32;33537;-62
2021/05/06 07:41:14;;;;;;;3.12;1.17;;;;;;;23.45;41.35;99596.56;4476017;32;33578;-61
2021/05/06 07:43:45;;;;;;;9.20;2.03;;;;;;;23.43;41.42;99591.34;4477365;32;34888;-62
2021/05/06 07:46:17;;;;;;;7.55;1.62;;;;;;;23.45;41.46;99587.56;4484431;32;34495;-61
2021/05/06 07:48:50;;;;;;;6.45;1.50;;;;;;;23.46;41.37;99595.53;4469392;32;33880;-61
2021/05/06 07:51:22;;;;;;;6.07;1.73;;;;;;;23.46;41.38;99594.69;4468384;32;34800;-62
2021/05/06 07:53:52;;;;;;;6.35;1.58;;;;;;;23.45;41.41;99599.28;4477053;32;33591;-61
2021/05/06 07:56:25;;;;;;;4.72;1.40;;;;;;;23.47;41.33;99596.34;4483965;32;33672;-62
2021/05/06 07:58:52;;;;;;;4.03;1.23;;;;;;;23.47;41.35;99597.19;4484529;32;33735;-60
2021/05/06 08:01:19;;;;;;;5.65;1.62;;;;;;;23.47;41.36;99605.34;4483907;32;34790;-60
2021/05/06 08:03:47;;;;;;;8.38;1.20;;;;;;;23.46;41.49;99603.69;4484152;32;33167;-60
2021/05/06 08:06:20;;;;;;;9.70;1.55;;;;;;;23.47;41.54;99602.63;4484730;32;34772;-62
2021/05/06 08:08:50;;;;;;;5.57;1.37;;;;;;;23.48;41.61;99600.72;4484264;32;33835;-61
2021/05/06 08:11:18;;;;;;;4.95;1.45;;;;;;;23.47;41.53;99601.81;4484261;32;33817;-60
2021/05/06 08:13:46;;;;;;;4.10;1.15;;;;;;;23.48;41.59;99601.56;4483927;32;34109;-61
2021/05/06 08:16:13;;;;;;;5.90;1.15;;;;;;;23.49;41.54;99613.28;4484074;32;33848;-60
2021/05/06 08:18:40;;;;;;;5.07;1.55;;;;;;;23.48;41.55;99601.56;4483842;32;35408;-60
2021/05/06 08:21:08;;;;;;;9.27;1.50;;;;;;;23.49;41.53;99608.66;4484045;32;33769;-60
2021/05/06 08:23:35;;;;;;;9.70;1.27;;;;;;;23.48;41.70;99608.91;4482083;32;33344;-60
2021/05/06 08:26:02;;;;;;;6.68;1.50;;;;;;;23.49;41.66;99603.22;4484303;32;33712;-60
2021/05/06 08:28:47;;;;;;;4.68;1.02;;;;;;;23.48;41.69;99596.13;4483996;32;33727;-60
2021/05/06 08:31:15;;;;;;;6.12;1.40;;;;;;;23.51;41.62;99601.09;4484089;32;33784;-61
2021/05/06 08:33:42;;;;;;;4.60;1.48;;;;;;;23.49;41.70;99600.50;4483817;32;33353;-60
2021/05/06 08:36:09;;;;;;;5.03;1.25;;;;;;;23.49;41.76;99597.75;4484237;32;35222;-60
2021/05/06 08:38:36;;;;;;;4.85;1.37;;;;;;;23.49;41.78;99591.50;4483801;32;34865;-60
2021/05/06 08:41:03;;;;;;;5.12;1.30;;;;;;;23.49;41.79;99600.50;4483751;32;34937;-61
2021/05/06 08:43:33;;;;;;;9.10;1.60;;;;;;;23.49;41.75;99595.03;4483990;32;33447;-61
2021/05/06 08:46:01;;;;;;;8.25;2.03;;;;;;;23.51;41.75;99589.37;4468310;32;34621;-61
2021/05/06 08:48:30;;;;;;;6.93;1.77;;;;;;;23.52;41.73;99589.16;4475518;32;33823;-61
2021/05/06 08:50:58;;;;;;;3.05;1.20;;;;;;;23.52;41.77;99588.31;4484107;32;33887;-61
2021/05/06 08:53:25;;;;;;;4.87;1.17;;;;;;;23.52;41.73;99589.16;4481748;32;33062;-61
2021/05/06 08:55:53;;;;;;;8.57;1.87;;;;;;;23.51;41.82;99598.38;4481999;32;33827;-61
2021/05/06 08:58:21;;;;;;;10.75;1.50;;;;;;;23.51;41.81;99587.50;4483900;32;33784;-61
2021/05/06 09:00:48;;;;;;;9.07;1.45;;;;;;;23.51;41.77;99592.94;4483819;32;33845;-62
2021/05/06 09:03:15;;;;;;;5.53;1.40;;;;;;;23.51;41.79;99582.03;4483644;32;34541;-60
2021/05/06 09:06:09;;;;;;;3.90;1.30;;;;;;;23.50;41.83;99583.13;4483444;32;33503;-62
2021/05/06 09:08:44;;;;;;;9.18;1.67;;;;;;;23.52;41.72;99589.16;4481766;32;32545;-61
2021/05/06 09:11:11;;;;;;;8.27;1.70;;;;;;;23.49;41.72;99599.66;4467412;32;34516;-62
2021/05/06 09:13:39;;;;;;;6.30;1.40;;;;;;;23.49;41.65;99597.75;4476960;32;33294;-62
2021/05/06 09:16:06;;;;;;;6.55;1.40;;;;;;;23.50;41.59;99607.63;4480656;32;34940;-61
2021/05/06 09:18:44;;;;;;;5.78;1.20;;;;;;;23.48;41.66;99595.28;4477270;32;33836;-61
2021/05/06 09:21:23;;;;;;;7.35;1.42;;;;;;;23.52;41.64;99596.50;4483338;32;33692;-63
2021/05/06 09:24:12;;;;;;;9.17;1.70;;;;;;;23.52;41.67;99588.31;4483661;32;34048;-62
2021/05/06 09:26:40;;;;;;;8.38;1.35;;;;;;;23.52;41.69;99594.59;4478319;32;33847;-62
2021/05/06 09:29:09;;;;;;;11.32;1.65;;;;;;;23.49;41.72;99603.22;4483789;32;33629;-62
2021/05/06 09:31:41;;;;;;;5.25;1.15;;;;;;;23.49;41.79;99597.75;4483268;32;34742;-62
2021/05/06 09:34:10;;;;;;;10.20;1.20;;;;;;;23.48;41.74;99607.00;4483438;32;33191;-61
2021/05/06 09:36:37;;;;;;;6.10;1.80;;;;;;;23.48;41.82;99607.00;4483341;32;34750;-62
2021/05/06 09:39:08;;;;;;;5.70;1.20;;;;;;;23.49;41.83;99597.75;4483670;32;34423;-62
2021/05/06 09:41:36;;;;;;;4.87;1.27;;;;;;;23.49;41.85;99605.09;4482410;32;33690;-62
2021/05/06 09:44:13;;;;;;;4.22;1.23;;;;;;;23.50;41.78;99613.06;4483638;32;33339;-63
2021/05/06 09:46:57;;;;;;;4.45;1.17;;;;;;;23.52;41.81;99618.28;4483159;32;34585;-62
2021/05/06 09:49:26;;;;;;;4.82;1.37;;;;;;;23.51;41.84;99606.56;4482328;32;34581;-61
2021/05/06 09:51:59;;;;;;;7.40;1.55;;;;;;;23.49;41.86;99605.09;4483612;32;33594;-62
2021/05/06 09:54:31;;;;;;;5.93;1.98;;;;;;;23.50;41.87;99606.75;4483447;32;33415;-61
2021/05/06 09:57:03;;;;;;;5.80;1.50;;;;;;;23.50;41.90;99610.34;4482897;32;33814;-61
2021/05/06 09:59:31;;;;;;;5.50;1.23;;;;;;;23.52;41.89;99605.47;4483491;32;34894;-61
2021/05/06 10:02:09;;;;;;;3.67;1.20;;;;;;;23.52;41.94;99604.66;4483261;32;34570;-61
2021/05/06 10:04:39;;;;;;;3.55;1.20;;;;;;;23.52;41.93;99619.09;4483442;32;34002;-62
2021/05/06 10:07:16;;;;;;;5.82;1.20;;;;;;;23.54;41.92;99625.13;4483168;32;33835;-62
2021/05/06 10:10:07;;;;;;;3.58;1.08;;;;;;;23.53;41.92;99626.19;4483203;32;33790;-61
2021/05/06 10:12:38;;;;;;;7.65;1.45;;;;;;;23.56;41.93;99630.38;4483039;32;33796;-60
2021/05/06 10:15:07;;;;;;;4.93;1.30;;;;;;;23.53;41.96;99628.94;4483139;32;33293;-61
2021/05/06 10:17:34;;;;;;;6.25;1.35;;;;;;;23.55;41.99;99625.97;4482943;32;33866;-62
2021/05/06 10:20:01;;;;;;;6.43;1.27;;;;;;;23.54;42.01;99625.13;4483099;32;33638;-61
2021/05/06 10:22:29;;;;;;;3.22;0.77;;;;;;;23.54;42.03;99614.25;4483062;32;34023;-61
2021/05/06 10:24:57;;;;;;;3.67;1.17;;;;;;;23.54;42.07;99625.13;4483394;32;34168;-61
2021/05/06 10:27:25;;;;;;;3.95;1.42;;;;;;;23.54;42.02;99613.41;4482519;32;34505;-63
2021/05/06 10:29:57;;;;;;;4.62;1.30;;;;;;;23.53;42.01;99607.13;4482923;32;34642;-62
2021/05/06 10:32:25;;;;;;;8.43;1.50;;;;;;;23.54;42.08;99605.25;4482800;32;33946;-61
2021/05/06 10:34:56;;;;;;;5.70;1.50;;;;;;;23.55;42.02;99598.72;4481733;32;33278;-61
2021/05/06 10:37:24;;;;;;;3.53;1.20;;;;;;;23.54;42.03;99597.91;4474151;32;34560;-61
2021/05/06 10:39:51;;;;;;;6.05;1.12;;;;;;;23.54;42.07;99597.91;4481351;32;34660;-62
2021/05/06 10:42:27;;;;;;;5.70;1.40;;;;;;;23.54;42.09;99589.72;4473004;32;34525;-61
2021/05/06 10:44:58;;;;;;;6.60;1.27;;;;;;;23.55;42.14;99593.28;4477825;32;33385;-61
2021/05/06 10:47:37;;;;;;;4.25;1.35;;;;;;;23.54;42.14;99597.91;4484686;32;33752;-61
2021/05/06 10:50:44;;;;;;;4.87;1.20;;;;;;;23.55;42.17;99593.28;4485165;32;34902;-61
2021/05/06 10:53:11;;;;;;;6.47;1.30;;;;;;;23.56;42.06;99593.06;4456636;31;33944;-62
2021/05/06 10:55:53;;;;;;;5.53;1.37;;;;;;;23.53;42.15;99590.81;4454830;32;33228;-62
2021/05/06 11:01:02;;;;;;;6.32;1.40;;;;;;;23.53;42.08;99601.69;4469257;32;35460;-61
2021/05/06 11:03:30;;;;;;;6.27;1.77;;;;;;;23.54;42.03;99611.53;4469487;32;33763;-61
2021/05/06 11:05:58;;;;;;;5.57;1.23;;;;;;;23.53;42.09;99601.69;4469450;32;33105;-61
2021/05/06 11:08:32;;;;;;;6.50;1.50;;;;;;;23.53;42.15;99603.59;4469016;32;34677;-62
2021/05/06 11:10:59;;;;;;;5.55;1.20;;;;;;;23.52;42.00;99594.59;4469212;32;34512;-62
2021/05/06 11:13:28;;;;;;;6.10;1.12;;;;;;;23.52;41.91;99597.31;4468862;32;34047;-62
2021/05/06 11:16:17;;;;;;;9.43;1.83;;;;;;;23.51;41.94;99609.28;4469152;32;34102;-61
2021/05/06 11:18:46;;;;;;;5.28;1.40;;;;;;;23.55;41.74;99613.19;4469100;32;33825;-61
2021/05/06 11:21:34;;;;;;;8.07;1.87;;;;;;;23.52;41.76;99612.81;4469341;32;35297;-61
2021/05/06 11:24:25;;;;;;;4.18;1.30;;;;;;;23.60;41.77;99601.62;4469112;32;34905;-61
2021/05/06 11:27:12;;;;;;;5.55;1.35;;;;;;;23.77;41.61;99604.50;4468495;32;33227;-61
2021/05/06 11:29:42;;;;;;;3.05;1.12;;;;;;;23.95;41.35;99593.53;4469073;32;33771;-60
2021/05/06 11:32:34;;;;;;;11.23;1.50;;;;;;;24.12;41.07;99580.06;4476952;31;35074;-61
2021/05/06 11:35:02;;;;;;;6.32;1.20;;;;;;;24.37;40.64;99574.37;4476393;31;33454;-62
2021/05/06 11:37:30;;;;;;;8.68;1.35;;;;;;;24.52;40.47;99582.91;4479746;32;33363;-61
2021/05/06 11:40:04;;;;;;;8.13;1.50;;;;;;;24.70;40.25;99584.66;4483630;32;34922;-61
2021/05/06 11:42:40;;;;;;;10.10;2.12;;;;;;;24.87;40.04;99584.75;4484060;32;35207;-60
2021/05/06 11:45:07;;;;;;;4.53;1.25;;;;;;;25.02;39.86;99582.31;4484471;32;34661;-60
2021/05/06 11:47:34;;;;;;;4.15;1.92;;;;;;;25.17;39.67;99579.09;4484011;32;34751;-62
2021/05/06 11:50:21;;;;;;;7.93;1.40;;;;;;;25.29;39.52;99579.06;4484437;32;33569;-62
2021/05/06 11:52:49;;;;;;;10.10;1.30;;;;;;;25.45;39.32;99564.59;4468920;32;34590;-62
2021/05/06 11:55:30;;;;;;;4.90;1.20;;;;;;;25.54;39.21;99563.12;4468883;32;33775;-62
2021/05/06 11:57:57;;;;;;;4.93;1.15;;;;;;;25.67;39.03;99557.34;4473556;32;33441;-62
2021/05/06 12:00:25;;;;;;;8.20;1.35;;;;;;;25.78;38.93;99560.28;4477114;32;33905;-62
2021/05/06 12:03:02;;;;;;;4.45;1.00;;;;;;;25.90;38.81;99558.31;4480056;32;33596;-62
2021/05/06 12:05:58;;;;;;;8.18;1.23;;;;;;;26.04;38.64;99548.69;4475544;32;34544;-62
2021/05/06 12:08:49;;;;;;;3.28;1.10;;;;;;;26.18;38.46;99552.72;4477665;32;33335;-62
2021/05/06 12:11:16;;;;;;;4.90;1.00;;;;;;;26.27;38.37;99564.06;4473577;32;34646;-62
2021/05/06 12:13:44;;;;;;;4.65;1.12;;;;;;;26.39;38.25;99555.75;4475572;32;33924;-63
2021/05/06 12:16:23;;;;;;;6.20;1.33;;;;;;;26.47;38.13;99547.12;4475043;32;33798;-62
2021/05/06 12:18:54;;;;;;;5.57;1.55;;;;;;;26.58;38.01;99559.91;4476074;32;34040;-63
2021/05/06 12:21:37;;;;;;;5.57;1.27;;;;;;;26.62;37.95;99560.19;4475680;32;33831;-63
2021/05/06 12:24:05;;;;;;;3.05;1.15;;;;;;;26.66;37.84;99567.66;4472873;32;33836;-63
2021/05/06 12:26:32;;;;;;;4.45;1.60;;;;;;;26.69;37.76;99558.13;4468564;32;34621;-62
2021/05/06 12:29:00;;;;;;;9.77;1.48;;;;;;;26.72;37.71;99557.63;4480720;32;33350;-63
2021/05/06 12:31:28;;;;;;;5.62;1.10;;;;;;;26.73;37.69;99558.44;4483973;32;33833;-63
2021/05/06 12:33:55;;;;;;;5.55;1.00;;;;;;;26.71;37.66;99548.53;4484235;32;33711;-62
2021/05/06 12:36:22;;;;;;;9.38;1.40;;;;;;;26.71;37.64;99558.66;4484342;32;33774;-63
2021/05/06 12:38:50;;;;;;;5.00;1.33;;;;;;;26.68;37.64;99543.59;4484241;32;33306;-63
2021/05/06 12:41:18;;;;;;;6.15;0.95;;;;;;;26.66;37.63;99533.97;4470111;32;34696;-63
2021/05/06 12:43:50;;;;;;;4.12;1.20;;;;;;;26.64;37.67;99534.25;4484226;32;33830;-63
2021/05/06 12:46:24;;;;;;;6.62;1.12;;;;;;;26.59;37.70;99536.91;4481870;32;33773;-62
2021/05/06 12:48:52;;;;;;;10.68;1.33;;;;;;;26.55;37.66;99524.81;4484064;32;33245;-62
2021/05/06 12:51:26;;;;;;;7.25;1.15;;;;;;;26.50;37.58;99524.75;4484205;32;35052;-63
2021/05/06 12:54:07;;;;;;;4.57;1.17;;;;;;;26.46;37.54;99526.34;4483993;32;34598;-63
2021/05/06 12:56:37;;;;;;;6.68;1.60;;;;;;;26.42;37.57;99523.25;4468347;32;34745;-63
2021/05/06 12:59:24;;;;;;;4.72;1.20;;;;;;;26.36;37.67;99526.19;4468417;32;34568;-63
2021/05/06 13:01:52;;;;;;;5.70;1.45;;;;;;;26.33;37.70;99523.94;4468663;32;33630;-62
2021/05/06 13:04:19;;;;;;;4.03;1.33;;;;;;;26.25;37.86;99527.09;4466851;32;33880;-63
2021/05/06 13:07:00;;;;;;;7.97;1.20;;;;;;;26.20;37.96;99531.41;4468230;32;33584;-62
2021/05/06 13:09:27;;;;;;;5.78;1.48;;;;;;;26.16;38.02;99524.81;4467910;32;33240;-62
2021/05/06 13:12:16;;;;;;;6.65;1.42;;;;;;;26.11;38.08;99524.75;4467164;32;33684;-62
2021/05/06 13:14:49;;;;;;;5.75;1.37;;;;;;;26.08;38.14;99514.28;4466857;32;33799;-63
2021/05/06 13:17:27;;;;;;;9.02;1.52;;;;;;;26.00;38.25;99498.31;4468455;32;33418;-62
2021/05/06 13:19:55;;;;;;;4.00;1.10;;;;;;;25.97;38.29;99495.25;4464856;32;33249;-61
2021/05/06 13:22:23;;;;;;;6.80;1.52;;;;;;;25.92;38.27;99490.53;4467324;32;33652;-62
2021/05/06 13:24:52;;;;;;;4.30;1.23;;;;;;;25.86;38.34;99494.28;4467633;32;33819;-63
2021/05/06 13:27:22;;;;;;;6.65;1.92;;;;;;;25.83;38.47;99486.56;4466879;32;33916;-62
2021/05/06 13:29:58;;;;;;;5.50;1.20;;;;;;;25.80;38.45;99498.00;4467622;32;33138;-63
2021/05/06 13:32:35;;;;;;;5.90;1.10;;;;;;;25.77;38.58;99496.59;4467391;32;34604;-61
2021/05/06 13:35:04;;;;;;;7.57;1.25;;;;;;;25.76;38.70;99491.37;4466928;32;33623;-62
2021/05/06 13:37:35;;;;;;;5.82;1.30;;;;;;;25.70;38.88;99483.09;4467466;32;33759;-61
2021/05/06 13:40:04;;;;;;;5.35;1.58;;;;;;;25.68;38.97;99473.47;4467080;32;34265;-63
2021/05/06 13:42:31;;;;;;;12.18;1.40;;;;;;;25.64;39.07;99480.50;4467069;32;34647;-61
2021/05/06 13:44:58;;;;;;;7.75;1.33;;;;;;;25.61;39.16;99470.91;4467397;32;33964;-62
2021/05/06 13:47:26;;;;;;;4.35;1.45;;;;;;;25.59;39.20;99475.78;4467138;32;34591;-66
2021/05/06 13:49:53;;;;;;;8.32;2.03;;;;;;;25.55;39.29;99473.78;4465830;32;33491;-62
2021/05/06 13:52:23;;;;;;;9.30;1.30;;;;;;;25.52;39.39;99466.94;4467276;32;35395;-63
2021/05/06 13:54:51;;;;;;;5.37;1.52;;;;;;;25.48;39.39;99462.22;4467028;32;33735;-63
2021/05/06 13:57:18;;;;;;;6.43;1.33;;;;;;;25.44;39.42;99478.28;4469405;32;33547;-62
2021/05/06 13:59:46;;;;;;;4.70;1.10;;;;;;;25.42;39.40;99478.53;4478737;32;33905;-61
2021/05/06 14:02:16;;;;;;;6.53;1.30;;;;;;;25.39;39.50;99478.19;4467469;32;33682;-61
2021/05/06 14:04:45;;;;;;;6.22;1.12;;;;;;;25.38;39.57;99491.03;4468667;32;33776;-61
2021/05/06 14:07:12;;;;;;;4.90;1.30;;;;;;;25.36;39.69;99490.41;4482730;32;33442;-61
2021/05/06 14:09:39;;;;;;;7.40;1.50;;;;;;;25.31;39.60;99494.97;4482673;32;32920;-62
2021/05/06 14:12:07;;;;;;;10.52;1.67;;;;;;;25.29;39.29;99476.09;4481752;32;33863;-60
2021/05/06 14:14:34;;;;;;;8.75;1.30;;;;;;;25.26;39.35;99468.41;4482408;32;33866;-61
2021/05/06 14:17:02;;;;;;;8.63;1.23;;;;;;;25.26;39.38;99462.13;4482428;32;33758;-61
2021/05/06 14:19:29;;;;;;;10.10;1.35;;;;;;;25.21;39.54;99471.03;4481965;32;34331;-61
2021/05/06 14:21:56;;;;;;;10.60;1.48;;;;;;;25.19;39.66;99462.28;4483808;32;34582;-61
2021/05/06 14:24:23;;;;;;;9.68;1.35;;;;;;;25.16;39.75;99458.13;4484198;32;33787;-61
2021/05/06 14:26:51;;;;;;;5.45;1.20;;;;;;;25.16;39.82;99454.56;4484083;32;33418;-62
2021/05/06 14:29:19;;;;;;;4.18;1.40;;;;;;;25.15;39.89;99448.28;4484706;32;33907;-62
2021/05/06 14:31:46;;;;;;;7.87;1.37;;;;;;;25.12;39.95;99443.31;4484171;32;34821;-62
2021/05/06 14:34:14;;;;;;;8.95;1.65;;;;;;;25.10;40.01;99431.81;4483476;32;33795;-62
2021/05/06 14:36:43;;;;;;;5.75;1.37;;;;;;;25.08;40.09;99439.41;4484437;32;34567;-61
2021/05/06 14:39:12;;;;;;;5.20;1.20;;;;;;;25.05;40.22;99447.25;4482970;32;33175;-62
2021/05/06 14:41:41;;;;;;;7.30;1.65;;;;;;;25.06;40.19;99433.34;4483852;32;34916;-60
2021/05/06 14:44:08;;;;;;;6.10;1.33;;;;;;;25.04;40.21;99429.19;4484237;32;34566;-62
2021/05/06 14:46:35;;;;;;;6.75;1.20;;;;;;;25.04;40.24;99430.06;4484418;32;34765;-61
2021/05/06 14:49:03;;;;;;;12.43;1.37;;;;;;;25.01;40.27;99433.28;4483779;32;33347;-61
2021/05/06 14:51:30;;;;;;;6.18;1.40;;;;;;;24.99;40.37;99429.94;4480546;32;34008;-62
2021/05/06 14:53:57;;;;;;;9.75;1.30;;;;;;;24.97;40.41;99429.37;4469311;32;33600;-62
2021/05/06 14:56:24;;;;;;;5.97;1.02;;;;;;;24.96;40.50;99425.00;4469015;32;33657;-62
2021/05/06 14:58:51;;;;;;;8.98;1.40;;;;;;;24.96;40.53;99411.34;4469124;32;33292;-62
2021/05/06 15:01:18;;;;;;;6.45;1.25;;;;;;;24.94;40.46;99408.84;4469026;32;33723;-61
2021/05/06 15:03:46;;;;;;;5.30;1.25;;;;;;;24.93;40.46;99414.56;4469101;32;33893;-61
2021/05/06 15:06:13;;;;;;;7.28;1.30;;;;;;;24.92;40.50;99411.00;4469043;32;33974;-60
2021/05/06 15:08:44;;;;;;;5.35;1.35;;;;;;;24.91;40.55;99403.91;4469066;32;34083;-62
2021/05/06 15:11:11;;;;;;;7.35;1.23;;;;;;;24.93;40.56;99404.47;4469142;32;33990;-62
2021/05/06 15:13:38;;;;;;;7.00;1.42;;;;;;;24.92;40.59;99407.44;4468115;32;35103;-62
2021/05/06 15:16:05;;;;;;;6.82;1.42;;;;;;;24.89;40.67;99399.75;4469003;32;33779;-62
2021/05/06 15:18:33;;;;;;;4.57;1.05;;;;;;;24.86;40.72;99387.44;4469027;32;33145;-62